createdAt,value
2022-11-19T00:00:52.086Z,22.55
2022-11-19T00:02:50.770Z,22.54
2022-11-19T00:04:48.823Z,22.53
2022-11-19T00:06:47.071Z,22.53
2022-11-19T00:08:45.127Z,22.52
2022-11-19T00:10:43.229Z,22.52
2022-11-19T00:12:55.803Z,22.52
2022-11-19T00:14:54.185Z,22.50
2022-11-19T00:16:52.448Z,22.49
2022-11-19T00:18:50.871Z,22.49
2022-11-19T00:20:50.977Z,22.47
2022-11-19T00:22:49.185Z,22.48
2022-11-19T00:24:47.269Z,22.47
2022-11-19T00:26:45.245Z,22.46
2022-11-19T00:28:43.690Z,22.46
2022-11-19T00:30:48.006Z,22.45
2022-11-19T00:32:47.233Z,22.44
2022-11-19T00:34:45.287Z,22.43
2022-11-19T00:36:43.573Z,22.43
2022-11-19T00:38:42.000Z,22.43
2022-11-19T00:40:40.192Z,22.41
2022-11-19T00:42:38.397Z,22.41
2022-11-19T00:44:37.576Z,22.42
2022-11-19T00:46:35.971Z,22.40
2022-11-19T00:48:33.993Z,22.40
2022-11-19T00:50:32.297Z,22.39
2022-11-19T00:52:30.358Z,22.39
2022-11-19T00:54:28.617Z,22.38
2022-11-19T00:56:26.826Z,22.37
2022-11-19T00:58:24.930Z,22.38
2022-11-19T01:00:23.466Z,22.36
2022-11-19T01:02:21.916Z,22.36
2022-11-19T01:04:19.974Z,22.36
2022-11-19T01:06:19.568Z,22.35
2022-11-19T01:08:18.101Z,22.33
2022-11-19T01:10:16.314Z,22.34
2022-11-19T01:12:14.576Z,22.35
2022-11-19T01:14:11.838Z,22.34
2022-11-19T01:16:10.236Z,22.32
2022-11-19T01:18:08.526Z,22.32
2022-11-19T01:20:06.779Z,22.31
2022-11-19T01:22:04.869Z,22.31
2022-11-19T01:24:02.942Z,22.31
2022-11-19T01:26:01.373Z,22.31
2022-11-19T01:27:59.874Z,22.30
2022-11-19T01:29:57.904Z,22.29
2022-11-19T01:31:56.006Z,22.30
2022-11-19T01:33:54.105Z,22.29
2022-11-19T01:35:52.351Z,22.28
2022-11-19T01:37:50.385Z,22.29
2022-11-19T01:39:48.773Z,22.28
2022-11-19T01:41:46.831Z,22.28
2022-11-19T01:43:44.925Z,22.27
2022-11-19T01:45:43.000Z,22.28
2022-11-19T01:47:41.246Z,22.27
2022-11-19T01:49:39.294Z,22.27
2022-11-19T01:51:37.390Z,22.26
2022-11-19T01:53:35.519Z,22.26
2022-11-19T01:55:33.568Z,22.25
2022-11-19T01:57:31.640Z,22.23
2022-11-19T01:59:29.909Z,22.23
2022-11-19T02:01:28.283Z,22.24
2022-11-19T02:03:26.487Z,22.23
2022-11-19T02:05:24.985Z,22.24
2022-11-19T02:07:29.070Z,22.23
2022-11-19T02:09:27.370Z,22.22
2022-11-19T02:11:25.384Z,22.23
2022-11-19T02:13:23.468Z,22.21
2022-11-19T02:15:21.701Z,22.21
2022-11-19T02:17:20.029Z,22.20
2022-11-19T02:19:18.483Z,22.20
2022-11-19T02:21:16.777Z,22.21
2022-11-19T02:23:14.840Z,22.20
2022-11-19T02:25:13.089Z,22.19
2022-11-19T02:27:11.127Z,22.21
2022-11-19T02:29:09.281Z,22.20
2022-11-19T02:31:07.545Z,22.18
2022-11-19T02:33:06.022Z,22.19
2022-11-19T02:35:04.226Z,22.18
2022-11-19T02:37:02.285Z,22.17
2022-11-19T02:39:00.580Z,22.17
2022-11-19T02:40:58.894Z,22.18
2022-11-19T02:42:56.909Z,22.16
2022-11-19T02:45:00.292Z,22.16
2022-11-19T02:46:58.393Z,22.16
2022-11-19T02:48:56.426Z,22.15
2022-11-19T02:50:54.805Z,22.15
2022-11-19T02:52:52.879Z,22.15
2022-11-19T02:54:50.973Z,22.15
2022-11-19T02:56:49.208Z,22.15
2022-11-19T02:59:04.955Z,22.14
2022-11-19T03:01:21.150Z,22.14
2022-11-19T03:03:36.858Z,22.13
2022-11-19T03:05:35.065Z,22.12
2022-11-19T03:07:33.384Z,22.12
2022-11-19T03:09:31.496Z,22.12
2022-11-19T03:11:29.959Z,22.11
2022-11-19T03:13:45.390Z,22.12
2022-11-19T03:16:01.056Z,22.11
2022-11-19T03:17:59.099Z,22.11
2022-11-19T03:19:57.341Z,22.10
2022-11-19T03:21:55.730Z,22.10
2022-11-19T03:23:53.976Z,22.10
2022-11-19T03:25:52.081Z,22.10
2022-11-19T03:27:50.265Z,22.10
2022-11-19T03:29:48.581Z,22.10
2022-11-19T03:31:46.636Z,22.10
2022-11-19T03:33:44.760Z,22.09
2022-11-19T03:35:42.811Z,22.11
2022-11-19T03:37:40.885Z,22.10
2022-11-19T03:39:38.939Z,22.09
2022-11-19T03:41:36.949Z,22.09
2022-11-19T03:43:35.361Z,22.08
2022-11-19T03:45:33.456Z,22.08
2022-11-19T03:47:31.710Z,22.09
2022-11-19T03:49:31.624Z,22.08
2022-11-19T03:51:29.877Z,22.08
2022-11-19T03:53:27.908Z,22.08
2022-11-19T03:55:25.987Z,22.07
2022-11-19T03:57:24.211Z,22.07
2022-11-19T03:59:25.542Z,22.07
2022-11-19T04:01:27.641Z,22.07
2022-11-19T04:03:25.788Z,22.06
2022-11-19T04:05:23.819Z,22.07
2022-11-19T04:07:22.088Z,22.07
2022-11-19T04:09:20.559Z,22.06
2022-11-19T04:13:15.723Z,22.04
2022-11-19T04:15:13.792Z,22.05
2022-11-19T04:17:12.120Z,22.05
2022-11-19T04:19:10.187Z,22.05
2022-11-19T04:21:08.433Z,22.04
2022-11-19T04:23:06.572Z,22.05
2022-11-19T04:25:04.830Z,22.05
2022-11-19T04:27:02.919Z,22.04
2022-11-19T04:29:01.374Z,22.04
2022-11-19T04:30:59.419Z,22.03
2022-11-19T04:32:57.475Z,22.03
2022-11-19T04:34:55.558Z,22.03
2022-11-19T04:36:54.095Z,22.03
2022-11-19T04:38:52.522Z,22.03
2022-11-19T04:40:50.863Z,22.02
2022-11-19T04:42:48.859Z,22.02
2022-11-19T04:44:47.132Z,22.00
2022-11-19T04:46:45.445Z,22.01
2022-11-19T04:48:43.648Z,22.00
2022-11-19T04:50:41.892Z,22.01
2022-11-19T04:52:41.312Z,22.01
2022-11-19T04:54:40.606Z,22.00
2022-11-19T04:56:38.633Z,22.00
2022-11-19T04:58:36.682Z,22.00
2022-11-19T05:00:34.763Z,21.99
2022-11-19T05:02:32.906Z,21.99
2022-11-19T05:04:30.858Z,21.99
2022-11-19T05:06:28.917Z,21.99
2022-11-19T05:08:26.977Z,21.99
2022-11-19T05:10:25.172Z,21.99
2022-11-19T05:12:23.228Z,21.99
2022-11-19T05:14:23.660Z,21.97
2022-11-19T05:16:24.381Z,21.97
2022-11-19T05:18:22.836Z,21.98
2022-11-19T05:20:21.149Z,21.98
2022-11-19T05:22:19.276Z,21.98
2022-11-19T05:24:17.306Z,21.97
2022-11-19T05:26:15.589Z,21.97
2022-11-19T05:28:14.052Z,21.97
2022-11-19T05:30:12.244Z,21.97
2022-11-19T05:32:10.517Z,21.97
2022-11-19T05:34:08.971Z,21.98
2022-11-19T05:36:07.195Z,21.98
2022-11-19T05:38:05.571Z,21.98
2022-11-19T05:40:03.915Z,21.99
2022-11-19T05:42:02.329Z,22.00
2022-11-19T05:44:00.379Z,22.01
2022-11-19T05:45:58.609Z,22.01
2022-11-19T05:47:57.085Z,22.01
2022-11-19T05:49:55.178Z,22.01
2022-11-19T05:51:53.561Z,22.02
2022-11-19T05:53:51.663Z,22.01
2022-11-19T05:55:49.740Z,22.02
2022-11-19T05:57:48.017Z,22.02
2022-11-19T05:59:46.155Z,22.02
2022-11-19T06:01:44.613Z,22.02
2022-11-19T06:03:42.758Z,22.01
2022-11-19T06:05:40.975Z,22.03
2022-11-19T06:07:39.330Z,22.03
2022-11-19T06:09:37.700Z,22.03
2022-11-19T06:11:51.550Z,22.03
2022-11-19T06:13:49.649Z,22.03
2022-11-19T06:15:47.648Z,22.04
2022-11-19T06:17:45.788Z,22.02
2022-11-19T06:19:43.844Z,22.02
2022-11-19T06:21:42.091Z,22.01
2022-11-19T06:23:40.372Z,22.01
2022-11-19T06:25:38.454Z,22.02
2022-11-19T06:27:36.774Z,22.02
2022-11-19T06:29:34.974Z,22.01
2022-11-19T06:31:33.007Z,22.01
2022-11-19T06:33:31.454Z,22.01
2022-11-19T06:35:29.703Z,22.01
2022-11-19T06:37:27.903Z,22.01
2022-11-19T06:39:25.972Z,22.00
2022-11-19T06:41:24.422Z,22.00
2022-11-19T06:43:22.393Z,22.01
2022-11-19T06:45:20.504Z,22.00
2022-11-19T06:47:18.781Z,21.99
2022-11-19T06:49:20.156Z,21.99
2022-11-19T06:51:18.563Z,21.99
2022-11-19T06:53:16.788Z,21.98
2022-11-19T06:55:15.107Z,21.98
2022-11-19T06:57:13.425Z,21.98
2022-11-19T06:59:11.729Z,21.97
2022-11-19T07:01:10.015Z,21.97
2022-11-19T07:03:08.103Z,21.97
2022-11-19T07:05:06.197Z,21.97
2022-11-19T07:07:04.466Z,21.97
2022-11-19T07:09:02.599Z,21.98
2022-11-19T07:11:00.704Z,21.97
2022-11-19T07:12:58.711Z,21.97
2022-11-19T07:15:02.681Z,21.98
2022-11-19T07:17:02.236Z,21.99
2022-11-19T07:19:00.265Z,22.00
2022-11-19T07:20:58.313Z,22.01
2022-11-19T07:22:59.336Z,22.02
2022-11-19T07:24:57.883Z,22.05
2022-11-19T07:26:55.885Z,22.07
2022-11-19T07:28:54.297Z,22.09
2022-11-19T07:30:52.341Z,22.10
2022-11-19T07:32:50.767Z,22.14
2022-11-19T07:34:48.774Z,22.16
2022-11-19T07:36:46.870Z,22.21
2022-11-19T07:38:44.914Z,22.26
2022-11-19T07:40:42.936Z,22.29
2022-11-19T07:42:53.264Z,22.33
2022-11-19T07:44:54.789Z,22.38
2022-11-19T07:46:53.229Z,22.41
2022-11-19T07:48:51.603Z,22.47
2022-11-19T07:50:55.142Z,22.50
2022-11-19T07:52:54.619Z,22.55
2022-11-19T07:54:52.682Z,22.58
2022-11-19T07:56:50.739Z,22.63
2022-11-19T07:58:49.076Z,22.65
2022-11-19T08:00:47.225Z,22.68
2022-11-19T08:02:45.938Z,22.73
2022-11-19T08:04:44.013Z,22.76
2022-11-19T08:06:42.439Z,22.78
2022-11-19T08:08:40.481Z,22.81
2022-11-19T08:10:38.569Z,22.84
2022-11-19T08:12:37.169Z,22.87
2022-11-19T08:14:35.238Z,22.89
2022-11-19T08:16:50.836Z,22.93
2022-11-19T08:18:48.949Z,22.95
2022-11-19T08:20:48.327Z,22.96
2022-11-19T08:22:46.553Z,22.98
2022-11-19T08:24:44.639Z,22.99
2022-11-19T08:26:42.667Z,23.01
2022-11-19T08:28:41.096Z,23.02
2022-11-19T08:30:41.737Z,23.03
2022-11-19T08:32:39.963Z,23.05
2022-11-19T08:34:38.049Z,23.07
2022-11-19T08:36:36.074Z,23.08
2022-11-19T08:38:38.465Z,23.08
2022-11-19T08:40:36.987Z,23.09
2022-11-19T08:42:52.386Z,23.11
2022-11-19T08:44:50.435Z,23.10
2022-11-19T08:46:48.517Z,23.11
2022-11-19T08:48:47.132Z,23.11
2022-11-19T08:50:45.162Z,23.11
2022-11-19T08:52:43.658Z,23.11
2022-11-19T08:54:41.877Z,23.12
2022-11-19T08:56:40.128Z,23.12
2022-11-19T08:58:38.439Z,23.12
2022-11-19T09:00:36.488Z,23.12
2022-11-19T09:02:34.770Z,23.13
2022-11-19T09:04:32.910Z,23.14
2022-11-19T09:06:31.058Z,23.14
2022-11-19T09:08:29.201Z,23.14
2022-11-19T09:10:27.463Z,23.14
2022-11-19T09:12:25.599Z,23.14
2022-11-19T09:14:23.619Z,23.14
2022-11-19T09:16:21.886Z,23.14
2022-11-19T09:18:19.953Z,23.14
2022-11-19T09:20:18.406Z,23.14
2022-11-19T09:22:16.835Z,23.14
2022-11-19T09:24:15.274Z,23.15
2022-11-19T09:26:13.420Z,23.15
2022-11-19T09:28:11.766Z,23.15
2022-11-19T09:30:09.982Z,23.15
2022-11-19T09:32:08.036Z,23.16
2022-11-19T09:34:06.080Z,23.17
2022-11-19T09:36:04.474Z,23.17
2022-11-19T09:38:02.701Z,23.18
2022-11-19T09:40:00.851Z,23.19
2022-11-19T09:41:59.164Z,23.18
2022-11-19T09:43:57.242Z,23.19
2022-11-19T09:45:55.597Z,23.19
2022-11-19T09:47:53.719Z,23.22
2022-11-19T09:49:52.010Z,23.23
2022-11-19T09:51:50.010Z,23.23
2022-11-19T09:53:48.249Z,23.23
2022-11-19T09:55:46.320Z,23.24
2022-11-19T09:57:44.338Z,23.24
2022-11-19T09:59:42.553Z,23.26
2022-11-19T10:01:40.776Z,23.26
2022-11-19T10:03:38.825Z,23.26
2022-11-19T10:05:37.225Z,23.26
2022-11-19T10:07:35.329Z,23.27
2022-11-19T10:09:33.488Z,23.27
2022-11-19T10:11:31.895Z,23.27
2022-11-19T10:13:30.113Z,23.26
2022-11-19T10:15:30.855Z,23.27
2022-11-19T10:17:31.300Z,23.27
2022-11-19T10:19:29.617Z,23.27
2022-11-19T10:21:27.736Z,23.27
2022-11-19T10:23:26.042Z,23.28
2022-11-19T10:25:24.228Z,23.28
2022-11-19T10:27:22.572Z,23.29
2022-11-19T10:29:20.915Z,23.29
2022-11-19T10:31:19.586Z,23.29
2022-11-19T10:33:18.066Z,23.29
2022-11-19T10:35:16.101Z,23.30
2022-11-19T10:37:14.180Z,23.28
2022-11-19T10:39:12.221Z,23.28
2022-11-19T10:41:10.228Z,23.28
2022-11-19T10:43:08.300Z,23.29
2022-11-19T10:45:06.391Z,23.28
2022-11-19T10:47:04.737Z,23.28
2022-11-19T10:49:03.266Z,23.28
2022-11-19T10:51:01.716Z,23.29
2022-11-19T10:52:59.775Z,23.28
2022-11-19T10:54:57.898Z,23.29
2022-11-19T10:56:55.939Z,23.28
2022-11-19T10:58:54.272Z,23.28
2022-11-19T11:00:52.308Z,23.28
2022-11-19T11:02:50.445Z,23.27
2022-11-19T11:04:48.555Z,23.28
2022-11-19T11:06:46.850Z,23.28
2022-11-19T11:08:45.146Z,23.28
2022-11-19T11:10:44.252Z,23.29
2022-11-19T11:13:02.330Z,23.30
2022-11-19T11:15:00.569Z,23.30
2022-11-19T11:16:59.403Z,23.31
2022-11-19T11:18:57.493Z,23.31
2022-11-19T11:20:56.490Z,23.31
2022-11-19T11:22:54.728Z,23.31
2022-11-19T11:24:52.822Z,23.32
2022-11-19T11:26:50.843Z,23.32
2022-11-19T11:28:49.119Z,23.33
2022-11-19T11:30:47.778Z,23.34
2022-11-19T11:32:47.416Z,23.34
2022-11-19T11:34:45.613Z,23.35
2022-11-19T11:36:43.913Z,23.35
2022-11-19T11:38:42.421Z,23.35
2022-11-19T11:40:40.814Z,23.36
2022-11-19T11:42:39.012Z,23.36
2022-11-19T11:44:37.316Z,23.36
2022-11-19T11:46:36.448Z,23.36
2022-11-19T11:48:34.681Z,23.36
2022-11-19T11:50:32.973Z,23.35
2022-11-19T11:52:30.992Z,23.36
2022-11-19T11:54:28.980Z,23.36
2022-11-19T11:56:28.144Z,23.37
2022-11-19T11:58:26.289Z,23.36
2022-11-19T12:00:24.320Z,23.36
2022-11-19T12:02:22.582Z,23.35
2022-11-19T12:04:20.702Z,23.35
2022-11-19T12:06:18.767Z,23.35
2022-11-19T12:08:16.831Z,23.35
2022-11-19T12:10:14.880Z,23.35
2022-11-19T12:12:13.019Z,23.34
2022-11-19T12:14:11.486Z,23.34
2022-11-19T12:16:09.657Z,23.34
2022-11-19T12:18:07.642Z,23.34
2022-11-19T12:20:05.666Z,23.35
2022-11-19T12:22:03.846Z,23.34
2022-11-19T12:24:01.781Z,23.33
2022-11-19T12:26:00.125Z,23.34
2022-11-19T12:27:58.240Z,23.34
2022-11-19T12:29:56.300Z,23.34
2022-11-19T12:31:54.381Z,23.34
2022-11-19T12:33:52.474Z,23.33
2022-11-19T12:35:50.985Z,23.34
2022-11-19T12:37:49.035Z,23.32
2022-11-19T12:39:47.527Z,23.33
2022-11-19T12:41:45.745Z,23.33
2022-11-19T12:43:43.793Z,23.32
2022-11-19T12:45:42.113Z,23.32
2022-11-19T12:47:44.677Z,23.34
2022-11-19T12:49:43.423Z,23.32
2022-11-19T12:51:41.425Z,23.31
2022-11-19T12:53:39.524Z,23.32
2022-11-19T12:55:37.544Z,23.33
2022-11-19T12:57:35.850Z,23.32
2022-11-19T12:59:33.881Z,23.33
2022-11-19T13:01:32.077Z,23.34
2022-11-19T13:03:30.199Z,23.34
2022-11-19T13:05:28.519Z,23.34
2022-11-19T13:07:26.654Z,23.36
2022-11-19T13:09:25.016Z,23.36
2022-11-19T14:04:49.929Z,22.79
2022-11-19T14:06:47.999Z,23.00
2022-11-19T14:08:46.337Z,23.33
2022-11-19T14:10:44.608Z,23.69
2022-11-19T14:12:42.930Z,24.03
2022-11-19T14:14:58.753Z,24.34
2022-11-19T14:17:14.649Z,24.66
2022-11-19T14:19:30.243Z,24.89
2022-11-19T14:21:46.079Z,25.09
2022-11-19T14:24:01.469Z,25.24
2022-11-19T14:26:17.532Z,25.33
2022-11-19T14:28:15.601Z,25.39
2022-11-19T14:30:14.070Z,25.45
2022-11-19T14:32:12.123Z,25.46
2022-11-19T14:34:10.379Z,25.48
2022-11-19T14:36:08.699Z,25.46
2022-11-19T14:38:06.911Z,25.47
2022-11-19T14:40:05.008Z,25.44
2022-11-19T14:42:03.086Z,25.41
2022-11-19T14:44:09.003Z,25.39
2022-11-19T14:46:09.158Z,25.36
2022-11-19T14:48:07.523Z,25.31
2022-11-19T14:50:05.760Z,25.28
2022-11-19T14:52:04.307Z,25.26
2022-11-19T14:54:03.527Z,25.22
2022-11-19T14:56:01.856Z,25.18
2022-11-19T14:58:00.014Z,25.14
2022-11-19T14:59:58.011Z,25.09
2022-11-19T15:01:56.028Z,25.06
2022-11-19T15:03:54.102Z,25.02
2022-11-19T15:05:53.257Z,25.00
2022-11-19T15:07:55.947Z,24.95
2022-11-19T15:09:54.585Z,24.91
2022-11-19T15:11:52.610Z,24.89
2022-11-19T15:13:50.669Z,24.84
2022-11-19T15:15:48.883Z,24.81
2022-11-19T15:17:47.266Z,24.78
2022-11-19T15:19:45.600Z,24.75
2022-11-19T15:21:43.904Z,24.72
2022-11-19T15:23:42.079Z,24.69
2022-11-19T15:25:40.364Z,24.65
2022-11-19T15:27:38.678Z,24.63
2022-11-19T15:29:36.973Z,24.61
2022-11-19T15:31:35.407Z,24.58
2022-11-19T15:33:33.429Z,24.56
2022-11-19T15:35:31.491Z,24.54
2022-11-19T15:37:29.572Z,24.52
2022-11-19T15:39:27.562Z,24.50
2022-11-19T15:41:25.724Z,24.47
2022-11-19T15:43:23.976Z,24.45
2022-11-19T15:45:22.374Z,24.43
2022-11-19T15:47:20.813Z,24.40
2022-11-19T15:49:19.443Z,24.39
2022-11-19T15:51:17.701Z,24.36
2022-11-19T15:53:16.024Z,24.35
2022-11-19T15:55:14.292Z,24.34
2022-11-19T15:57:12.352Z,24.31
2022-11-19T15:59:10.692Z,24.30
2022-11-19T16:01:08.840Z,24.29
2022-11-19T16:03:07.107Z,24.29
2022-11-19T16:05:05.605Z,24.28
2022-11-19T16:07:03.668Z,24.26
2022-11-19T16:09:03.342Z,24.25
2022-11-19T16:11:20.692Z,24.23
2022-11-19T16:13:36.690Z,24.22
2022-11-19T16:16:04.111Z,24.21
2022-11-19T16:18:02.491Z,24.17
2022-11-19T16:20:00.718Z,24.16
2022-11-19T16:21:58.973Z,24.14
2022-11-19T16:24:14.538Z,24.13
2022-11-19T16:26:12.780Z,24.10
2022-11-19T16:28:11.238Z,24.09
2022-11-19T16:30:09.555Z,24.07
2022-11-19T16:32:08.195Z,24.04
2022-11-19T16:34:06.731Z,24.02
2022-11-19T16:36:05.036Z,24.01
2022-11-19T16:38:03.121Z,23.98
2022-11-19T16:40:01.138Z,23.97
2022-11-19T16:42:16.911Z,23.95
2022-11-19T16:44:15.013Z,23.94
2022-11-19T16:46:13.032Z,23.91
2022-11-19T16:48:11.508Z,23.89
2022-11-19T16:50:09.796Z,23.87
2022-11-19T16:52:08.390Z,23.84
2022-11-19T16:54:06.614Z,23.83
2022-11-19T16:56:04.716Z,23.79
2022-11-19T16:58:02.973Z,23.77
2022-11-19T17:00:01.230Z,23.76
2022-11-19T17:01:59.745Z,23.75
2022-11-19T17:03:58.153Z,23.73
2022-11-19T17:05:56.122Z,23.70
2022-11-19T17:07:54.196Z,23.68
2022-11-19T17:09:52.385Z,23.65
2022-11-19T17:12:08.017Z,23.62
2022-11-19T17:14:06.321Z,23.60
2022-11-19T17:16:04.367Z,23.58
2022-11-19T17:18:02.616Z,23.56
2022-11-19T17:20:00.727Z,23.54
2022-11-19T17:21:58.747Z,23.52
2022-11-19T17:23:57.120Z,23.51
2022-11-19T17:25:55.154Z,23.50
2022-11-19T17:27:53.565Z,23.47
2022-11-19T17:29:51.650Z,23.44
2022-11-19T17:31:49.899Z,23.43
2022-11-19T17:33:47.992Z,23.41
2022-11-19T17:35:46.052Z,23.39
2022-11-19T17:37:44.671Z,23.37
2022-11-19T17:39:42.697Z,23.36
2022-11-19T17:41:58.677Z,23.34
2022-11-19T17:44:14.344Z,23.32
2022-11-19T17:46:12.484Z,23.30
2022-11-19T17:48:10.544Z,23.29
2022-11-19T17:50:08.680Z,23.26
2022-11-19T17:52:06.781Z,23.25
2022-11-19T17:54:05.264Z,23.23
2022-11-19T17:56:03.716Z,23.22
2022-11-19T17:58:02.014Z,23.21
2022-11-19T18:00:00.075Z,23.19
2022-11-19T18:01:58.622Z,23.17
2022-11-19T18:03:56.760Z,23.16
2022-11-19T18:05:55.109Z,23.13
2022-11-19T18:07:53.350Z,23.12
2022-11-19T18:09:51.813Z,23.10
2022-11-19T18:11:50.064Z,23.11
2022-11-19T18:13:48.319Z,23.07
2022-11-19T18:15:46.673Z,23.07
2022-11-19T18:17:45.030Z,23.07
2022-11-19T18:19:43.172Z,23.05
2022-11-19T18:21:41.276Z,23.03
2022-11-19T18:23:39.646Z,23.02
2022-11-19T18:25:37.657Z,23.00
2022-11-19T18:27:36.124Z,22.99
2022-11-19T18:29:34.473Z,22.98
2022-11-19T18:31:32.719Z,22.98
2022-11-19T18:33:30.823Z,22.96
2022-11-19T18:35:30.680Z,22.95
2022-11-19T18:37:29.811Z,22.94
2022-11-19T18:39:27.983Z,22.93
2022-11-19T18:41:26.443Z,22.92
2022-11-19T18:43:42.353Z,22.91
2022-11-19T18:45:40.624Z,22.90
2022-11-19T18:47:38.950Z,22.88
2022-11-19T18:49:37.079Z,22.89
2022-11-19T18:51:35.306Z,22.87
2022-11-19T18:53:33.592Z,22.87
2022-11-19T18:55:32.023Z,22.87
2022-11-19T18:57:30.025Z,22.86
2022-11-19T18:59:28.796Z,22.88
2022-11-19T19:01:27.178Z,22.87
2022-11-19T19:03:25.478Z,22.87
2022-11-19T19:05:23.727Z,22.87
2022-11-19T19:07:21.991Z,22.87
2022-11-19T19:09:20.757Z,22.88
2022-11-19T19:11:36.184Z,22.89
2022-11-19T19:13:34.518Z,22.89
2022-11-19T19:15:32.729Z,22.90
2022-11-19T19:17:30.955Z,22.90
2022-11-19T19:19:28.970Z,22.90
2022-11-19T19:21:27.031Z,22.91
2022-11-19T19:23:25.542Z,22.90
2022-11-19T19:25:23.728Z,22.91
2022-11-19T19:27:22.054Z,22.91
2022-11-19T19:29:20.583Z,22.90
2022-11-19T19:31:19.123Z,22.91
2022-11-19T19:33:17.216Z,22.91
2022-11-19T19:35:15.514Z,22.90
2022-11-19T19:37:13.632Z,22.90
2022-11-19T19:39:11.973Z,22.88
2022-11-19T19:41:10.099Z,22.89
2022-11-19T19:43:08.164Z,22.88
2022-11-19T19:45:06.509Z,22.87
2022-11-19T19:47:04.818Z,22.87
2022-11-19T19:49:02.843Z,22.86
2022-11-19T19:51:01.190Z,22.85
2022-11-19T19:52:59.489Z,22.86
2022-11-19T19:54:57.732Z,22.84
2022-11-19T19:56:55.798Z,22.84
2022-11-19T19:58:54.077Z,22.81
2022-11-19T20:00:52.351Z,22.82
2022-11-19T20:02:50.485Z,22.80
2022-11-19T20:04:48.617Z,22.80
2022-11-19T20:06:47.008Z,22.79
2022-11-19T20:08:45.405Z,22.78
2022-11-19T20:10:43.451Z,22.77
2022-11-19T20:12:58.883Z,22.76
2022-11-19T20:14:57.114Z,22.76
2022-11-19T20:16:55.431Z,22.75
2022-11-19T20:18:53.663Z,22.73
2022-11-19T20:20:51.911Z,22.73
2022-11-19T20:22:49.993Z,22.74
2022-11-19T20:24:48.478Z,22.74
2022-11-19T20:26:46.788Z,22.73
2022-11-19T20:28:44.848Z,22.74
2022-11-19T20:30:43.174Z,22.74
2022-11-19T20:32:41.271Z,22.75
2022-11-19T20:34:39.276Z,22.74
2022-11-19T20:36:37.557Z,22.75
2022-11-19T20:38:35.701Z,22.76
2022-11-19T20:40:33.718Z,22.76
2022-11-19T20:42:49.261Z,22.76
2022-11-19T20:44:47.313Z,22.76
2022-11-19T20:46:45.829Z,22.78
2022-11-19T20:48:43.844Z,22.77
2022-11-19T20:50:42.177Z,22.77
2022-11-19T20:52:40.418Z,22.77
2022-11-19T20:54:38.554Z,22.78
2022-11-19T20:56:36.802Z,22.77
2022-11-19T20:58:34.870Z,22.78
2022-11-19T21:00:34.149Z,22.78
2022-11-19T21:02:32.470Z,22.78
2022-11-19T21:04:36.236Z,22.77
2022-11-19T21:06:34.585Z,22.77
2022-11-19T21:08:32.681Z,22.77
2022-11-19T21:10:30.755Z,22.77
2022-11-19T21:12:29.177Z,22.75
2022-11-19T21:14:27.495Z,22.75
2022-11-19T21:16:25.572Z,22.74
2022-11-19T21:18:24.489Z,22.74
2022-11-19T21:20:22.968Z,22.73
2022-11-19T21:22:20.928Z,22.74
2022-11-19T21:24:18.982Z,22.72
2022-11-19T21:26:17.430Z,22.70
2022-11-19T21:28:15.909Z,22.69
2022-11-19T21:30:14.251Z,22.69
2022-11-19T21:32:12.874Z,22.69
2022-11-19T21:34:10.888Z,22.67
2022-11-19T21:36:09.097Z,22.66
2022-11-19T21:38:11.831Z,22.67
2022-11-19T21:40:10.360Z,22.66
2022-11-19T21:42:08.450Z,22.66
2022-11-19T21:44:06.776Z,22.66
2022-11-19T21:46:04.792Z,22.66
2022-11-19T21:48:02.881Z,22.65
2022-11-19T21:50:01.174Z,22.65
2022-11-19T21:51:59.483Z,22.65
2022-11-19T21:53:57.758Z,22.65
2022-11-19T21:55:55.807Z,22.66
2022-11-19T21:57:54.271Z,22.67
2022-11-19T21:59:52.595Z,22.67
2022-11-19T22:01:54.704Z,22.67
2022-11-19T22:03:53.252Z,22.67
2022-11-19T22:05:51.458Z,22.69
2022-11-19T22:07:50.174Z,22.70
2022-11-19T22:09:48.253Z,22.71
2022-11-19T22:11:46.528Z,22.73
2022-11-19T22:13:44.596Z,22.74
2022-11-19T22:15:42.676Z,22.73
2022-11-19T22:17:40.711Z,22.74
2022-11-19T22:19:39.011Z,22.75
2022-11-19T22:21:37.290Z,22.75
2022-11-19T22:23:35.352Z,22.77
2022-11-19T22:25:33.533Z,22.76
2022-11-19T22:27:31.626Z,22.76
2022-11-19T22:29:29.704Z,22.76
2022-11-19T22:31:27.729Z,22.75
2022-11-19T22:33:25.866Z,22.74
2022-11-19T22:35:23.897Z,22.76
2022-11-19T22:37:21.966Z,22.75
2022-11-19T22:39:20.313Z,22.74
2022-11-19T22:41:18.618Z,22.74
2022-11-19T22:43:20.303Z,22.74
2022-11-19T22:45:21.129Z,22.71
2022-11-19T22:47:19.397Z,22.72
2022-11-19T22:49:17.581Z,22.72
2022-11-19T22:51:15.716Z,22.69
2022-11-19T22:53:16.168Z,22.69
2022-11-19T22:55:14.239Z,22.68
2022-11-19T22:57:12.268Z,22.67
2022-11-19T22:59:10.533Z,22.66
2022-11-19T23:01:08.694Z,22.68
2022-11-19T23:03:07.010Z,22.66
2022-11-19T23:05:05.258Z,22.65
2022-11-19T23:07:03.651Z,22.65
2022-11-19T23:09:01.803Z,22.65
2022-11-19T23:11:00.095Z,22.65
2022-11-19T23:13:15.758Z,22.63
2022-11-19T23:15:14.043Z,22.63
2022-11-19T23:17:12.316Z,22.62
2022-11-19T23:19:10.382Z,22.61
2022-11-19T23:21:08.628Z,22.60
2022-11-19T23:23:06.748Z,22.59
2022-11-19T23:25:06.295Z,22.60
2022-11-19T23:27:04.633Z,22.59
2022-11-19T23:29:02.682Z,22.58
2022-11-19T23:31:00.804Z,22.57
2022-11-19T23:32:59.073Z,22.56
2022-11-19T23:34:57.233Z,22.56
2022-11-19T23:36:55.246Z,22.55
2022-11-19T23:38:53.436Z,22.54
2022-11-19T23:40:51.676Z,22.53
2022-11-19T23:42:52.176Z,22.52
2022-11-19T23:44:50.389Z,22.50
2022-11-19T23:46:48.742Z,22.50
2022-11-19T23:48:47.258Z,22.49
2022-11-19T23:50:45.523Z,22.48
2022-11-19T23:52:43.796Z,22.48
2022-11-19T23:54:42.220Z,22.46
2022-11-19T23:56:40.752Z,22.46
2022-11-19T23:58:38.846Z,22.46
